createdAt,value
2017-07-02T00:01:22.953Z,68.00
2017-07-02T00:03:51.804Z,67.90
2017-07-02T00:06:19.811Z,68.10
2017-07-02T00:08:47.825Z,68.00
2017-07-02T00:11:15.842Z,68.10
2017-07-02T00:13:43.866Z,67.90
2017-07-02T00:16:11.883Z,67.90
2017-07-02T00:18:39.910Z,68.10
2017-07-02T00:21:07.924Z,68.00
2017-07-02T00:23:35.951Z,68.00
2017-07-02T00:26:03.966Z,67.80
2017-07-02T00:28:31.989Z,68.10
2017-07-02T00:31:00.003Z,68.00
2017-07-02T00:33:28.031Z,67.80
2017-07-02T00:35:56.050Z,67.80
2017-07-02T00:38:24.078Z,67.90
2017-07-02T00:40:52.106Z,67.90
2017-07-02T00:43:20.135Z,68.00
2017-07-02T00:45:48.237Z,68.10
2017-07-02T00:48:16.262Z,67.90
2017-07-02T00:50:44.294Z,68.00
2017-07-02T00:53:12.313Z,68.20
2017-07-02T00:55:40.343Z,68.00
2017-07-02T00:58:08.361Z,68.30
2017-07-02T01:00:36.390Z,68.00
2017-07-02T01:03:04.519Z,68.20
2017-07-02T01:05:32.583Z,67.90
2017-07-02T01:08:00.606Z,67.90
2017-07-02T01:10:29.435Z,67.50
2017-07-02T01:12:57.474Z,67.50
2017-07-02T01:15:26.270Z,67.80
2017-07-02T01:17:54.670Z,67.80
2017-07-02T01:20:22.739Z,67.90
2017-07-02T01:22:50.815Z,67.60
2017-07-02T01:25:18.877Z,67.70
2017-07-02T01:27:46.956Z,67.70
2017-07-02T01:30:15.034Z,67.90
2017-07-02T01:32:43.098Z,67.80
2017-07-02T01:35:11.166Z,68.00
2017-07-02T01:37:39.234Z,67.90
2017-07-02T01:40:07.310Z,68.20
2017-07-02T01:42:35.785Z,67.90
2017-07-02T01:45:03.858Z,67.90
2017-07-02T01:47:31.927Z,68.00
2017-07-02T01:50:00.003Z,68.10
2017-07-02T01:52:28.074Z,68.20
2017-07-02T01:54:56.962Z,68.10
2017-07-02T01:57:24.994Z,68.30
2017-07-02T01:59:53.818Z,68.10
2017-07-02T02:02:33.730Z,68.00
2017-07-02T02:05:02.739Z,68.20
2017-07-02T02:07:30.833Z,68.20
2017-07-02T02:09:58.908Z,67.90
2017-07-02T02:12:27.482Z,67.90
2017-07-02T02:14:56.527Z,68.00
2017-07-02T02:17:25.330Z,68.10
2017-07-02T02:19:54.971Z,67.60
2017-07-02T02:22:23.041Z,67.60
2017-07-02T02:24:51.114Z,67.80
2017-07-02T02:27:19.182Z,67.90
2017-07-02T02:29:47.256Z,68.10
2017-07-02T02:32:15.281Z,67.90
2017-07-02T02:34:44.065Z,68.40
2017-07-02T02:37:13.002Z,68.50
2017-07-02T02:39:41.070Z,68.30
2017-07-02T02:42:09.602Z,68.50
2017-07-02T02:44:37.630Z,68.70
2017-07-02T02:47:05.687Z,68.80
2017-07-02T02:49:33.766Z,68.50
2017-07-02T02:52:01.830Z,68.40
2017-07-02T02:54:30.420Z,68.50
2017-07-02T02:56:58.487Z,68.50
2017-07-02T02:59:26.555Z,68.40
2017-07-02T03:01:54.583Z,68.10
2017-07-02T03:04:23.378Z,68.10
2017-07-02T03:06:52.199Z,67.90
2017-07-02T03:09:20.263Z,67.90
2017-07-02T03:11:48.283Z,67.80
2017-07-02T03:14:16.317Z,67.90
2017-07-02T03:16:44.378Z,67.80
2017-07-02T03:19:12.987Z,67.80
2017-07-02T03:21:41.015Z,67.80
2017-07-02T03:24:09.103Z,67.70
2017-07-02T03:26:37.174Z,67.80
2017-07-02T03:29:05.199Z,67.70
2017-07-02T03:31:33.995Z,67.40
2017-07-02T03:34:02.818Z,67.30
2017-07-02T03:36:30.843Z,67.20
2017-07-02T03:38:59.674Z,67.80
2017-07-02T03:41:27.746Z,67.40
2017-07-02T03:43:56.094Z,67.50
2017-07-02T03:46:24.891Z,68.00
2017-07-02T03:48:55.303Z,68.10
2017-07-02T03:51:24.104Z,67.50
2017-07-02T03:53:52.195Z,67.50
2017-07-02T03:56:20.263Z,67.10
2017-07-02T03:58:48.335Z,67.10
2017-07-02T04:01:16.367Z,67.20
2017-07-02T04:03:45.195Z,66.80
2017-07-02T04:06:13.258Z,66.80
2017-07-02T04:08:41.279Z,66.40
2017-07-02T04:11:09.402Z,66.40
2017-07-02T04:13:39.010Z,66.00
2017-07-02T04:16:07.082Z,65.70
2017-07-02T04:18:35.145Z,66.00
2017-07-02T04:21:04.242Z,65.60
2017-07-02T04:23:32.266Z,65.40
2017-07-02T04:26:01.102Z,65.30
2017-07-02T04:28:29.994Z,64.60
2017-07-02T04:30:58.066Z,64.30
2017-07-02T04:33:26.427Z,63.80
2017-07-02T04:35:54.450Z,64.50
2017-07-02T04:38:22.995Z,64.50
2017-07-02T04:40:51.062Z,63.70
2017-07-02T04:43:20.023Z,63.60
2017-07-02T04:45:49.666Z,63.70
2017-07-02T04:48:18.147Z,63.60
2017-07-02T04:50:46.978Z,63.40
2017-07-02T04:53:15.102Z,63.90
2017-07-02T04:55:43.126Z,63.70
2017-07-02T04:58:12.710Z,63.00
2017-07-02T05:00:40.846Z,63.00
2017-07-02T05:03:08.882Z,62.90
2017-07-02T05:05:37.674Z,63.50
2017-07-02T05:08:06.595Z,63.30
2017-07-02T05:10:34.669Z,63.30
2017-07-02T05:13:02.711Z,63.70
2017-07-02T05:15:32.036Z,63.20
2017-07-02T05:18:00.234Z,63.10
2017-07-02T05:20:28.259Z,63.10
2017-07-02T05:22:57.682Z,63.50
2017-07-02T05:25:25.757Z,63.40
2017-07-02T05:27:53.814Z,63.30
2017-07-02T05:30:21.890Z,63.60
2017-07-02T05:32:49.966Z,63.70
2017-07-02T05:35:18.955Z,63.60
2017-07-02T05:37:47.786Z,64.30
2017-07-02T05:40:15.914Z,63.80
2017-07-02T05:42:43.986Z,63.50
2017-07-02T05:45:12.258Z,63.50
2017-07-02T05:47:40.331Z,63.70
2017-07-02T05:50:08.402Z,63.20
2017-07-02T05:52:36.471Z,62.90
2017-07-02T05:55:04.547Z,62.80
2017-07-02T05:57:32.606Z,62.20
2017-07-02T06:00:01.039Z,62.20
2017-07-02T06:02:29.063Z,62.50
2017-07-02T06:04:57.130Z,62.30
2017-07-02T06:07:25.203Z,63.30
2017-07-02T06:09:53.265Z,63.80
2017-07-02T06:12:21.342Z,63.30
2017-07-02T06:14:49.366Z,63.60
2017-07-02T06:17:18.978Z,63.50
2017-07-02T06:19:47.807Z,62.60
2017-07-02T06:22:15.871Z,62.60
2017-07-02T06:24:43.946Z,61.60
2017-07-02T06:27:12.643Z,61.10
2017-07-02T06:29:40.670Z,61.00
2017-07-02T06:32:09.590Z,60.50
2017-07-02T06:34:38.142Z,59.20
2017-07-02T06:37:06.958Z,59.00
2017-07-02T06:39:35.026Z,59.00
2017-07-02T06:42:03.914Z,58.40
2017-07-02T06:44:31.986Z,57.80
2017-07-02T06:47:00.062Z,57.50
2017-07-02T06:49:28.131Z,57.80
2017-07-02T06:51:56.204Z,57.40
2017-07-02T06:54:24.224Z,57.90
2017-07-02T06:56:52.347Z,57.80
2017-07-02T06:59:20.370Z,59.00
2017-07-02T07:01:49.202Z,58.20
2017-07-02T07:04:17.274Z,58.20
2017-07-02T07:06:45.354Z,58.60
2017-07-02T07:09:13.417Z,58.90
2017-07-02T07:11:41.479Z,59.80
2017-07-02T07:14:09.498Z,59.20
2017-07-02T07:16:38.044Z,59.80
2017-07-02T07:19:06.064Z,58.40
2017-07-02T07:21:34.895Z,59.30
2017-07-02T07:24:03.818Z,59.30
2017-07-02T07:26:31.957Z,59.20
2017-07-02T07:28:59.970Z,58.80
2017-07-02T07:31:27.994Z,58.60
2017-07-02T07:33:56.063Z,58.40
2017-07-02T07:36:24.745Z,58.80
2017-07-02T07:38:53.017Z,59.30
2017-07-02T07:41:22.014Z,58.80
2017-07-02T07:43:50.090Z,58.50
2017-07-02T07:46:18.154Z,58.10
2017-07-02T07:48:46.198Z,58.50
2017-07-02T07:51:15.011Z,59.30
2017-07-02T07:53:43.188Z,59.30
2017-07-02T07:56:11.774Z,59.50
2017-07-02T07:58:40.628Z,59.30
2017-07-02T08:01:09.474Z,59.20
2017-07-02T08:03:37.622Z,59.20
2017-07-02T08:06:06.523Z,58.90
2017-07-02T08:08:34.575Z,58.20
2017-07-02T08:11:03.963Z,58.50
2017-07-02T08:13:32.149Z,59.00
2017-07-02T08:16:00.767Z,58.20
2017-07-02T08:18:28.910Z,58.20
2017-07-02T08:20:56.984Z,58.10
2017-07-02T08:23:25.051Z,58.50
2017-07-02T08:25:53.146Z,58.20
2017-07-02T08:28:21.200Z,58.40
2017-07-02T08:30:49.259Z,58.00
2017-07-02T08:33:17.724Z,58.60
2017-07-02T08:35:45.915Z,58.90
2017-07-02T08:38:13.987Z,58.90
2017-07-02T08:40:42.002Z,59.20
2017-07-02T08:43:10.943Z,59.10
2017-07-02T08:45:38.962Z,58.80
2017-07-02T08:48:07.089Z,58.70
2017-07-02T08:50:35.150Z,59.10
2017-07-02T08:53:03.226Z,59.10
2017-07-02T08:55:31.295Z,58.90
2017-07-02T08:58:01.922Z,58.20
2017-07-02T09:00:30.005Z,58.10
2017-07-02T09:02:58.847Z,58.70
2017-07-02T09:05:27.638Z,59.20
2017-07-02T09:07:56.458Z,59.10
2017-07-02T09:10:24.526Z,59.10
2017-07-02T09:12:52.542Z,58.50
2017-07-02T09:15:20.570Z,58.60
2017-07-02T09:17:49.563Z,58.90
2017-07-02T09:20:17.598Z,58.90
2017-07-02T09:22:46.414Z,59.30
2017-07-02T09:25:14.678Z,59.30
2017-07-02T09:27:42.976Z,59.40
2017-07-02T09:30:11.945Z,59.60
2017-07-02T09:32:40.031Z,59.60
2017-07-02T09:35:08.103Z,59.80
2017-07-02T09:37:36.122Z,59.70
2017-07-02T09:40:04.146Z,59.50
2017-07-02T09:42:32.206Z,59.40
2017-07-02T09:45:00.283Z,59.40
2017-07-02T09:47:28.354Z,58.90
2017-07-02T09:49:56.368Z,58.80
2017-07-02T09:52:24.781Z,58.70
2017-07-02T09:54:52.804Z,58.50
2017-07-02T09:57:21.735Z,58.90
2017-07-02T09:59:49.766Z,58.70
2017-07-02T10:02:17.794Z,58.90
2017-07-02T10:04:45.806Z,59.10
2017-07-02T10:07:13.856Z,59.20
2017-07-02T10:09:41.867Z,59.50
2017-07-02T10:12:09.894Z,59.30
2017-07-02T10:14:37.936Z,59.10
2017-07-02T10:17:05.954Z,59.60
2017-07-02T10:19:35.750Z,59.80
2017-07-02T10:22:03.779Z,60.10
2017-07-02T10:24:31.795Z,60.00
2017-07-02T10:26:59.818Z,60.00
2017-07-02T10:29:27.840Z,60.20
2017-07-02T10:31:55.881Z,61.30
2017-07-02T10:34:23.902Z,60.60
2017-07-02T10:36:52.790Z,60.00
2017-07-02T10:39:20.806Z,60.40
2017-07-02T10:41:48.830Z,60.10
2017-07-02T10:44:16.843Z,60.10
2017-07-02T10:46:44.878Z,60.50
2017-07-02T10:49:12.895Z,60.70
2017-07-02T10:51:40.922Z,60.40
2017-07-02T10:54:08.946Z,60.60
2017-07-02T10:56:36.958Z,60.90
2017-07-02T10:59:04.986Z,60.80
2017-07-02T11:01:32.998Z,60.80
2017-07-02T11:04:01.020Z,60.90
2017-07-02T11:06:29.030Z,60.70
2017-07-02T11:08:57.061Z,60.60
2017-07-02T11:11:25.071Z,60.60
2017-07-02T11:13:53.114Z,60.60
2017-07-02T11:16:21.122Z,60.60
2017-07-02T11:18:49.146Z,60.60
2017-07-02T11:21:18.054Z,60.30
2017-07-02T11:23:46.083Z,60.20
2017-07-02T11:26:14.102Z,60.30
2017-07-02T11:28:42.123Z,60.20
2017-07-02T11:31:10.143Z,60.30
2017-07-02T11:33:38.178Z,60.60
2017-07-02T11:36:07.082Z,60.50
2017-07-02T11:38:35.110Z,60.30
2017-07-02T11:41:03.120Z,60.20
2017-07-02T11:43:31.159Z,60.10
2017-07-02T11:45:59.178Z,60.00
2017-07-02T11:48:27.186Z,59.80
2017-07-02T11:50:55.206Z,59.70
2017-07-02T11:53:23.318Z,59.70
2017-07-02T11:55:51.343Z,59.20
2017-07-02T11:58:19.466Z,59.20
2017-07-02T12:00:47.543Z,58.90
2017-07-02T12:03:15.602Z,58.80
2017-07-02T12:05:43.675Z,59.10
2017-07-02T12:08:11.842Z,59.10
2017-07-02T12:10:39.832Z,59.10
2017-07-02T12:13:08.726Z,58.50
2017-07-02T12:15:36.747Z,58.50
2017-07-02T12:18:04.763Z,58.80
2017-07-02T12:20:32.788Z,58.70
2017-07-02T12:23:00.799Z,58.80
2017-07-02T12:25:28.895Z,59.00
2017-07-02T12:27:56.906Z,58.90
2017-07-02T12:30:24.955Z,59.00
2017-07-02T12:32:52.963Z,59.10
2017-07-02T12:35:20.987Z,58.90
2017-07-02T12:37:49.040Z,59.10
2017-07-02T12:40:17.040Z,58.80
2017-07-02T12:42:45.058Z,58.80
2017-07-02T12:45:13.167Z,58.70
2017-07-02T12:47:41.182Z,58.40
2017-07-02T12:50:09.195Z,57.80
2017-07-02T12:52:37.223Z,57.90
2017-07-02T12:55:05.234Z,57.30
2017-07-02T12:57:33.259Z,57.20
2017-07-02T13:00:01.274Z,57.10
2017-07-02T13:02:31.003Z,57.10
2017-07-02T13:04:59.022Z,57.50
2017-07-02T13:07:27.052Z,56.90
2017-07-02T13:09:55.066Z,57.20
2017-07-02T13:12:23.095Z,57.40
2017-07-02T13:14:51.111Z,57.30
2017-07-02T13:17:19.144Z,56.90
2017-07-02T13:19:47.162Z,56.80
2017-07-02T13:22:15.182Z,56.70
2017-07-02T13:24:43.635Z,56.50
2017-07-02T13:27:11.659Z,56.50
2017-07-02T13:29:39.675Z,57.20
2017-07-02T13:32:07.694Z,57.10
2017-07-02T13:34:35.717Z,57.50
2017-07-02T13:37:03.740Z,57.60
2017-07-02T13:39:31.754Z,57.90
2017-07-02T13:41:59.789Z,58.00
2017-07-02T13:44:27.807Z,57.80
2017-07-02T13:46:55.819Z,57.80
2017-07-02T13:49:23.848Z,57.90
2017-07-02T13:51:51.864Z,57.70
2017-07-02T13:54:19.890Z,58.10
2017-07-02T13:56:47.906Z,58.20
2017-07-02T13:59:15.943Z,58.10
2017-07-02T14:01:43.959Z,58.30
2017-07-02T14:04:11.995Z,58.30
2017-07-02T14:06:40.011Z,58.30
2017-07-02T14:09:08.036Z,58.50
2017-07-02T14:11:36.058Z,58.50
2017-07-02T14:14:04.100Z,58.60
2017-07-02T14:16:32.126Z,58.90
2017-07-02T14:19:00.162Z,59.00
2017-07-02T14:21:28.174Z,59.30
2017-07-02T14:23:56.207Z,59.40
2017-07-02T14:26:24.218Z,59.70
2017-07-02T14:28:52.238Z,59.60
2017-07-02T14:31:20.254Z,59.70
2017-07-02T14:33:48.700Z,59.60
2017-07-02T14:36:16.715Z,59.80
2017-07-02T14:38:44.742Z,60.10
2017-07-02T14:41:12.760Z,59.80
2017-07-02T14:43:40.785Z,59.60
2017-07-02T14:46:08.802Z,59.60
2017-07-02T14:48:36.820Z,59.70
2017-07-02T14:51:04.845Z,59.60
2017-07-02T14:53:32.873Z,59.60
2017-07-02T14:56:00.894Z,59.30
2017-07-02T14:58:28.913Z,59.30
2017-07-02T15:00:56.934Z,59.30
2017-07-02T15:03:24.959Z,59.40
2017-07-02T15:05:52.982Z,59.60
2017-07-02T15:08:21.011Z,59.40
2017-07-02T15:10:49.036Z,59.60
2017-07-02T15:13:17.280Z,59.50
2017-07-02T15:15:45.303Z,59.30
2017-07-02T15:18:13.393Z,59.30
2017-07-02T15:20:41.419Z,59.30
2017-07-02T15:23:09.427Z,59.30
2017-07-02T15:25:37.450Z,59.20
2017-07-02T15:28:05.467Z,59.50
2017-07-02T15:30:33.490Z,59.50
2017-07-02T15:33:01.507Z,59.40
2017-07-02T15:35:29.529Z,59.80
2017-07-02T15:37:57.548Z,61.20
2017-07-02T15:40:26.030Z,63.00
2017-07-02T15:42:54.047Z,62.10
2017-07-02T15:45:22.066Z,61.70
2017-07-02T15:47:50.092Z,61.50
2017-07-02T15:50:18.107Z,61.20
2017-07-02T15:52:46.130Z,61.00
2017-07-02T15:55:14.146Z,60.90
2017-07-02T15:57:42.170Z,61.30
2017-07-02T16:00:10.998Z,60.70
2017-07-02T16:02:39.018Z,60.80
2017-07-02T16:05:07.051Z,60.30
2017-07-02T16:07:35.074Z,60.20
2017-07-02T16:10:03.086Z,60.40
2017-07-02T16:12:31.915Z,60.50
2017-07-02T16:14:59.943Z,60.30
2017-07-02T16:17:27.954Z,60.30
2017-07-02T16:19:55.971Z,60.70
2017-07-02T16:22:24.906Z,60.70
2017-07-02T16:24:52.919Z,60.80
2017-07-02T16:27:20.982Z,60.90
2017-07-02T16:29:49.514Z,60.80
2017-07-02T16:32:17.534Z,60.80
2017-07-02T16:34:45.550Z,61.00
2017-07-02T16:37:13.575Z,61.00
2017-07-02T16:39:41.591Z,61.20
2017-07-02T16:42:10.506Z,61.20
2017-07-02T16:44:38.519Z,61.50
2017-07-02T16:47:06.534Z,61.50
2017-07-02T16:49:34.554Z,61.50
2017-07-02T16:52:02.567Z,61.50
2017-07-02T16:54:30.592Z,61.10
2017-07-02T16:56:58.602Z,61.20
2017-07-02T16:59:26.627Z,61.30
2017-07-02T17:01:55.542Z,61.30
2017-07-02T17:04:23.571Z,61.30
2017-07-02T17:06:52.479Z,61.30
2017-07-02T17:09:20.507Z,61.30
2017-07-02T17:11:48.522Z,61.50
2017-07-02T17:14:17.123Z,61.40
2017-07-02T17:16:45.141Z,61.40
2017-07-02T17:19:13.162Z,61.40
2017-07-02T17:21:41.182Z,61.50
2017-07-02T17:24:09.210Z,61.60
2017-07-02T17:26:37.220Z,61.60
2017-07-02T17:29:05.242Z,61.50
2017-07-02T17:31:34.170Z,61.60
2017-07-02T17:34:02.186Z,61.60
2017-07-02T17:36:30.203Z,61.90
2017-07-02T17:38:58.244Z,61.80
2017-07-02T17:41:26.263Z,61.90
2017-07-02T17:43:54.275Z,61.90
2017-07-02T17:46:22.310Z,61.90
2017-07-02T17:48:50.327Z,61.90
2017-07-02T17:51:18.351Z,61.90
2017-07-02T17:53:46.362Z,61.90
2017-07-02T17:56:14.823Z,61.70
2017-07-02T17:58:42.843Z,61.60
2017-07-02T18:01:10.866Z,61.70
2017-07-02T18:03:38.889Z,61.70
2017-07-02T18:06:07.810Z,61.80
2017-07-02T18:08:35.823Z,61.80
2017-07-02T18:11:03.847Z,61.90
2017-07-02T18:13:31.859Z,61.90
2017-07-02T18:15:59.879Z,61.70
2017-07-02T18:18:27.903Z,62.00
2017-07-02T18:20:56.383Z,61.60
2017-07-02T18:23:24.395Z,61.50
2017-07-02T18:25:52.423Z,61.80
2017-07-02T18:28:20.441Z,61.30
2017-07-02T18:30:48.463Z,61.60
2017-07-02T18:33:16.474Z,61.20
2017-07-02T18:35:44.504Z,61.30
2017-07-02T18:38:12.515Z,61.20
2017-07-02T18:40:40.575Z,61.30
2017-07-02T18:43:08.554Z,61.50
2017-07-02T18:45:36.579Z,61.70
2017-07-02T18:48:04.600Z,61.80
2017-07-02T18:50:32.610Z,61.40
2017-07-02T18:53:00.635Z,61.40
2017-07-02T18:55:28.654Z,61.50
2017-07-02T18:57:56.674Z,61.30
2017-07-02T19:00:24.687Z,61.40
2017-07-02T19:02:52.776Z,61.40
2017-07-02T19:05:20.805Z,61.70
2017-07-02T19:07:48.830Z,61.70
2017-07-02T19:10:17.003Z,62.20
2017-07-02T19:12:45.003Z,62.00
2017-07-02T19:15:13.039Z,62.00
2017-07-02T19:17:41.075Z,62.30
2017-07-02T19:20:09.083Z,62.40
2017-07-02T19:22:37.114Z,62.40
2017-07-02T19:25:05.142Z,62.50
2017-07-02T19:27:33.166Z,62.50
2017-07-02T19:30:01.186Z,62.70
2017-07-02T19:32:29.211Z,63.00
2017-07-02T19:34:57.222Z,63.10
2017-07-02T19:37:25.262Z,63.20
2017-07-02T19:39:53.290Z,63.10
2017-07-02T19:42:21.810Z,63.40
2017-07-02T19:44:49.834Z,63.10
2017-07-02T19:47:17.848Z,63.10
2017-07-02T19:49:45.870Z,63.20
2017-07-02T19:52:13.889Z,63.20
2017-07-02T19:54:41.931Z,63.20
2017-07-02T19:57:09.942Z,63.40
2017-07-02T19:59:37.966Z,63.20
2017-07-02T20:02:05.986Z,63.10
2017-07-02T20:04:34.014Z,63.30
2017-07-02T20:07:02.858Z,63.40
2017-07-02T20:09:30.886Z,63.50
2017-07-02T20:11:59.799Z,63.50
2017-07-02T20:14:27.826Z,63.60
2017-07-02T20:16:55.839Z,63.80
2017-07-02T20:19:23.859Z,64.00
2017-07-02T20:21:51.870Z,64.00
2017-07-02T20:24:19.895Z,63.90
2017-07-02T20:26:47.916Z,63.90
2017-07-02T20:29:15.931Z,64.00
2017-07-02T20:31:43.947Z,64.10
2017-07-02T20:34:11.979Z,64.20
2017-07-02T20:36:39.996Z,64.10
2017-07-02T20:39:08.014Z,64.20
2017-07-02T20:41:36.867Z,64.40
2017-07-02T20:44:04.879Z,64.30
2017-07-02T20:46:32.899Z,64.30
2017-07-02T20:49:00.910Z,64.20
2017-07-02T20:51:28.938Z,64.20
2017-07-02T20:53:56.955Z,64.20
2017-07-02T20:56:25.515Z,64.20
2017-07-02T20:58:53.479Z,64.20
2017-07-02T21:01:22.249Z,64.40
2017-07-02T21:03:50.246Z,64.20
2017-07-02T21:06:18.271Z,64.30
2017-07-02T21:08:46.284Z,64.20
2017-07-02T21:11:14.303Z,64.30
2017-07-02T21:13:42.323Z,64.30
2017-07-02T21:16:10.347Z,64.40
2017-07-02T21:18:38.367Z,64.50
2017-07-02T21:21:06.390Z,64.20
2017-07-02T21:23:34.407Z,64.30
2017-07-02T21:26:02.431Z,64.00
2017-07-02T21:28:31.238Z,64.20
2017-07-02T21:30:59.263Z,64.20
2017-07-02T21:33:27.276Z,64.20
2017-07-02T21:35:55.310Z,64.10
2017-07-02T21:38:23.327Z,64.20
2017-07-02T21:40:52.055Z,64.00
2017-07-02T21:43:20.079Z,63.80
2017-07-02T21:45:48.099Z,64.20
2017-07-02T21:48:16.122Z,64.00
2017-07-02T21:50:44.135Z,64.30
2017-07-02T21:53:12.625Z,64.20
2017-07-02T21:55:40.806Z,64.00
2017-07-02T21:58:08.839Z,64.00
2017-07-02T22:00:36.874Z,63.90
2017-07-02T22:03:04.899Z,63.80
2017-07-02T22:05:32.919Z,63.90
2017-07-02T22:08:00.935Z,63.90
2017-07-02T22:10:29.524Z,63.80
2017-07-02T22:12:57.550Z,63.90
2017-07-02T22:15:25.570Z,64.00
2017-07-02T22:17:53.600Z,64.50
2017-07-02T22:20:21.730Z,63.80
2017-07-02T22:22:50.282Z,63.60
2017-07-02T22:25:18.301Z,63.40
2017-07-02T22:27:46.326Z,63.60
2017-07-02T22:30:14.334Z,63.70
2017-07-02T22:32:42.354Z,63.70
2017-07-02T22:35:10.390Z,63.60
2017-07-02T22:37:38.406Z,63.60
2017-07-02T22:40:06.427Z,63.40
2017-07-02T22:42:34.444Z,63.50
2017-07-02T22:45:02.462Z,63.20
2017-07-02T22:47:30.478Z,63.10
2017-07-02T22:49:58.499Z,63.00
2017-07-02T22:52:26.511Z,62.90
2017-07-02T22:54:54.598Z,62.80
2017-07-02T22:57:22.770Z,62.80
2017-07-02T22:59:51.046Z,63.00
2017-07-02T23:02:19.066Z,62.90
2017-07-02T23:04:48.102Z,62.70
2017-07-02T23:07:17.098Z,62.50
2017-07-02T23:09:45.782Z,62.50
2017-07-02T23:12:15.628Z,62.50
2017-07-02T23:14:43.767Z,62.30
2017-07-02T23:17:12.045Z,62.50
2017-07-02T23:19:40.114Z,62.70
2017-07-02T23:22:08.136Z,62.50
2017-07-02T23:24:36.256Z,62.20
2017-07-02T23:27:06.066Z,62.00
2017-07-02T23:29:34.132Z,62.20
2017-07-02T23:32:02.202Z,62.00
2017-07-02T23:34:30.247Z,61.90
2017-07-02T23:36:59.030Z,62.10
2017-07-02T23:39:28.667Z,62.10
2017-07-02T23:41:56.739Z,61.90
2017-07-02T23:44:24.811Z,62.00
2017-07-02T23:46:52.878Z,62.10
2017-07-02T23:49:20.950Z,61.70
2017-07-02T23:51:49.023Z,61.90
2017-07-02T23:54:17.094Z,61.40
2017-07-02T23:56:45.158Z,61.70
2017-07-02T23:59:13.543Z,61.70
